Time;durP1;ratioP1;P1;durP2;ratioP2;P2;SDS_P1;SDS_P2;PMS_P1;PMS_P2;Temp;Humidity;BMP_temperature;BMP_pressure;BME280_temperature;BME280_humidity;BME280_pressure;Samples;Min_cycle;Max_cycle;Signal;HPM_P1;HPM_P2
2022/12/23 00:02:56;;;;;;;13.60;6.57;;;;;;;5.80;100.00;99907.84;6246608;28;20049;-76
2022/12/23 00:05:57;;;;;;;13.13;6.78;;;;;;;5.81;100.00;99901.75;6246120;28;20516;-76
2022/12/23 00:08:59;;;;;;;17.45;6.70;;;;;;;5.83;100.00;99899.06;6246308;28;20455;-76
2022/12/23 00:15:20;;;;;;;12.27;5.72;;;;;;;5.83;100.00;99899.91;6245942;28;20057;-76
2022/12/23 00:18:22;;;;;;;12.88;6.05;;;;;;;5.84;100.00;99905.97;6246022;28;20049;-76
2022/12/23 00:21:24;;;;;;;14.90;6.57;;;;;;;5.84;100.00;99900.75;6245834;28;20057;-76
2022/12/23 00:24:25;;;;;;;13.25;4.72;;;;;;;5.85;100.00;99910.25;6250192;28;20072;-76
2022/12/23 00:27:26;;;;;;;12.45;4.35;;;;;;;5.85;100.00;99894.59;6250626;28;20053;-76
2022/12/23 00:30:28;;;;;;;7.10;3.63;;;;;;;5.83;100.00;99892.09;6250272;28;20061;-76
2022/12/23 00:33:33;;;;;;;11.35;5.10;;;;;;;5.82;100.00;99886.94;6250595;28;20061;-76
2022/12/23 00:36:37;;;;;;;10.55;5.07;;;;;;;5.77;100.00;99888.94;6250286;28;20134;-76
2022/12/23 00:42:57;;;;;;;10.20;5.18;;;;;;;5.75;100.00;99896.81;6250069;28;20058;-76
2022/12/23 00:45:58;;;;;;;12.98;5.20;;;;;;;5.75;100.00;99885.53;6250173;28;20057;-76
2022/12/23 00:52:20;;;;;;;13.35;6.40;;;;;;;5.77;100.00;99889.78;6241462;28;20460;-76
2022/12/23 00:55:21;;;;;;;11.77;4.97;;;;;;;5.80;100.00;99897.44;6241342;28;20046;-76
2022/12/23 00:58:22;;;;;;;7.20;3.58;;;;;;;5.83;100.00;99891.25;6247632;28;20056;-76
2022/12/23 01:08:20;;;;;;;11.35;4.22;;;;;;;5.83;100.00;99889.47;6173598;28;20039;-76
2022/12/23 01:11:21;;;;;;;6.88;3.35;;;;;;;5.84;100.00;99900.75;6173365;28;20047;-76
2022/12/23 01:14:23;;;;;;;9.70;4.85;;;;;;;5.85;100.00;99892.00;6243038;28;20061;-76
2022/12/23 01:17:24;;;;;;;14.68;7.03;;;;;;;5.84;100.00;99895.53;6241224;28;20045;-76
2022/12/23 01:20:26;;;;;;;9.65;4.38;;;;;;;5.84;100.00;99880.72;6249067;28;20061;-76
2022/12/23 01:23:28;;;;;;;8.48;4.10;;;;;;;5.85;100.00;99898.06;6249406;28;20049;-76
2022/12/23 01:26:29;;;;;;;7.07;3.63;;;;;;;5.85;100.00;99892.84;6248913;28;20072;-76
2022/12/23 01:29:31;;;;;;;13.68;4.60;;;;;;;5.87;100.00;99898.00;6249321;28;20052;-76
2022/12/23 01:32:32;;;;;;;8.82;4.50;;;;;;;5.83;100.00;99905.13;6241487;28;20046;-76
2022/12/23 01:35:35;;;;;;;7.90;3.80;;;;;;;5.83;100.00;99899.91;6247075;28;20072;-76
2022/12/23 01:38:36;;;;;;;7.20;3.85;;;;;;;5.86;100.00;99906.75;6249020;28;20053;-76
2022/12/23 01:44:59;;;;;;;9.57;4.18;;;;;;;5.85;100.00;99907.63;6246389;28;20071;-76
2022/12/23 01:48:04;;;;;;;9.68;4.85;;;;;;;5.85;100.00;99908.47;6243427;28;20123;-76
2022/12/23 01:51:11;;;;;;;11.38;5.35;;;;;;;5.88;100.00;99901.44;6248392;28;20057;-76
2022/12/23 01:54:12;;;;;;;13.35;5.63;;;;;;;5.83;100.00;99905.13;6248575;28;20432;-77
2022/12/23 01:57:14;;;;;;;8.05;3.90;;;;;;;5.83;100.00;99920.75;6248306;28;20053;-77
2022/12/23 02:03:42;;;;;;;6.93;3.20;;;;;;;5.89;100.00;99926.59;6248246;28;20497;-76
2022/12/23 02:10:08;;;;;;;8.73;3.22;;;;;;;5.86;100.00;99932.81;6247912;28;20054;-76
2022/12/23 02:13:16;;;;;;;6.22;3.13;;;;;;;5.87;100.00;99933.66;6248298;28;20057;-76
2022/12/23 02:16:17;;;;;;;8.73;3.45;;;;;;;5.85;100.00;99941.53;6247890;28;20057;-76
2022/12/23 02:19:39;;;;;;;10.02;4.05;;;;;;;5.84;100.00;99934.63;6247783;28;20108;-76
2022/12/23 02:23:04;;;;;;;7.00;3.22;;;;;;;5.85;100.00;99939.78;6247750;28;20053;-76
2022/12/23 02:26:31;;;;;;;11.02;3.92;;;;;;;5.86;100.00;99938.03;6247642;28;20052;-76
2022/12/23 02:29:56;;;;;;;4.50;2.55;;;;;;;5.80;100.00;99935.69;6247648;28;20061;-76
2022/12/23 02:33:34;;;;;;;8.85;3.92;;;;;;;5.83;100.00;99939.00;6247651;28;20399;-76
2022/12/23 02:36:43;;;;;;;6.97;2.47;;;;;;;5.86;100.00;99945.84;6233696;28;20060;-76
2022/12/23 02:39:51;;;;;;;8.18;3.83;;;;;;;5.87;100.00;99936.28;6247124;28;20048;-76
2022/12/23 02:42:59;;;;;;;10.18;3.88;;;;;;;5.87;100.00;99934.50;6247292;28;20060;-76
2022/12/23 02:46:07;;;;;;;7.20;3.10;;;;;;;5.86;100.00;99940.66;6246819;28;20056;-76
2022/12/23 02:49:14;;;;;;;9.10;3.88;;;;;;;5.81;100.00;99940.84;6247339;28;20045;-76
2022/12/23 02:52:18;;;;;;;9.48;4.57;;;;;;;5.83;100.00;99951.22;6247036;28;20057;-76
2022/12/23 02:55:23;;;;;;;5.18;3.28;;;;;;;5.84;100.00;99956.34;6246874;28;20053;-76
2022/12/23 02:58:31;;;;;;;8.60;4.00;;;;;;;5.86;100.00;99961.50;6247112;28;20417;-76
2022/12/23 03:01:33;;;;;;;6.13;2.63;;;;;;;5.83;100.00;99957.25;6246886;28;20057;-76
2022/12/23 03:04:39;;;;;;;6.85;3.42;;;;;;;5.85;100.00;99959.78;6246653;28;20509;-75
2022/12/23 03:07:42;;;;;;;9.75;3.33;;;;;;;5.87;100.00;99970.16;6247040;28;20056;-76
2022/12/23 03:11:01;;;;;;;9.55;4.35;;;;;;;5.89;100.00;99965.72;6246754;28;20049;-75
2022/12/23 03:14:22;;;;;;;9.25;3.33;;;;;;;5.88;100.00;99966.63;6246931;28;20056;-76
2022/12/23 03:17:41;;;;;;;5.10;3.10;;;;;;;5.85;100.00;99965.84;6246531;28;20060;-76
2022/12/23 03:20:51;;;;;;;7.45;3.08;;;;;;;5.89;100.00;99978.75;6246651;28;20049;-76
2022/12/23 03:23:57;;;;;;;10.27;3.97;;;;;;;5.92;100.00;99982.09;6246717;28;20054;-76
2022/12/23 03:27:04;;;;;;;9.00;4.25;;;;;;;5.93;100.00;99981.19;6246634;28;20442;-76
2022/12/23 03:30:08;;;;;;;12.55;5.03;;;;;;;5.92;100.00;99981.25;6246118;28;20045;-76
2022/12/23 03:33:15;;;;;;;10.43;4.35;;;;;;;5.93;100.00;99985.56;6246403;28;20437;-76
2022/12/23 03:36:24;;;;;;;11.23;4.32;;;;;;;5.90;100.00;99988.25;6246592;28;20052;-76
2022/12/23 03:39:29;;;;;;;14.38;5.43;;;;;;;5.89;100.00;100000.44;6246471;28;20397;-76
2022/12/23 03:42:35;;;;;;;14.90;6.10;;;;;;;5.89;100.00;100008.28;6246599;28;20049;-76
2022/12/23 03:45:43;;;;;;;15.82;5.57;;;;;;;5.85;100.00;100001.50;6247099;28;20049;-76
2022/12/23 03:48:48;;;;;;;17.17;5.65;;;;;;;5.83;100.00;100001.59;6246202;28;20056;-76
2022/12/23 03:51:56;;;;;;;14.88;5.60;;;;;;;5.83;100.00;100011.16;6246534;28;20413;-76
2022/12/23 03:55:02;;;;;;;12.77;5.45;;;;;;;5.82;100.00;100009.50;6246340;28;20102;-76
2022/12/23 03:58:10;;;;;;;14.98;5.60;;;;;;;5.81;100.00;100013.84;6248634;28;20049;-76
2022/12/23 04:01:18;;;;;;;12.30;4.60;;;;;;;5.79;100.00;100012.22;6251099;28;20053;-75
2022/12/23 04:04:26;;;;;;;21.65;6.28;;;;;;;5.74;100.00;100017.66;6251061;28;20061;-76
2022/12/23 04:07:32;;;;;;;10.95;4.82;;;;;;;5.76;100.00;100020.16;6251057;28;20049;-76
2022/12/23 04:10:34;;;;;;;15.70;5.80;;;;;;;5.76;100.00;100009.75;6250933;28;20424;-77
2022/12/23 04:13:35;;;;;;;16.20;4.68;;;;;;;5.77;100.00;100027.09;6251107;28;20053;-76
2022/12/23 04:16:37;;;;;;;11.65;5.55;;;;;;;5.76;100.00;100028.00;6250871;28;20489;-76
2022/12/23 04:19:38;;;;;;;9.77;4.25;;;;;;;5.77;100.00;100034.94;6250814;28;20045;-77
2022/12/23 04:22:42;;;;;;;14.20;4.63;;;;;;;5.79;100.00;100036.53;6250583;28;20053;-76
2022/12/23 04:25:43;;;;;;;10.73;4.25;;;;;;;5.78;100.00;100036.59;6250643;28;20171;-76
2022/12/23 04:28:45;;;;;;;8.23;3.65;;;;;;;5.76;100.00;100028.84;6250486;28;20042;-76
2022/12/23 04:31:46;;;;;;;14.43;4.95;;;;;;;5.72;100.00;100029.03;6250393;28;20497;-77
2022/12/23 04:34:47;;;;;;;9.73;4.00;;;;;;;5.70;100.00;100033.50;6250559;28;20053;-76
2022/12/23 04:37:50;;;;;;;11.27;4.57;;;;;;;5.69;100.00;100031.81;6250434;28;20060;-76
2022/12/23 04:40:51;;;;;;;14.43;5.03;;;;;;;5.69;100.00;100035.25;6250065;28;20068;-76
2022/12/23 04:43:52;;;;;;;7.68;3.35;;;;;;;5.73;100.00;100051.63;6250004;28;20516;-76
2022/12/23 04:46:54;;;;;;;10.85;4.32;;;;;;;5.77;100.00;100045.34;6250219;28;20064;-76
2022/12/23 04:49:56;;;;;;;8.85;4.05;;;;;;;5.75;100.00;100057.59;6249750;28;20420;-76
2022/12/23 04:52:58;;;;;;;7.25;3.58;;;;;;;5.76;100.00;100057.50;6250008;28;20049;-76
2022/12/23 04:56:00;;;;;;;12.90;4.75;;;;;;;5.79;100.00;100067.81;6249867;28;20057;-76
2022/12/23 04:59:03;;;;;;;10.25;5.00;;;;;;;5.81;100.00;100067.75;6250009;28;20046;-76
2022/12/23 05:02:04;;;;;;;12.35;5.20;;;;;;;5.79;100.00;100067.81;6249619;28;20096;-76
2022/12/23 05:05:06;;;;;;;10.30;4.78;;;;;;;5.82;100.00;100067.69;6249980;28;20050;-76
2022/12/23 05:08:09;;;;;;;9.77;4.93;;;;;;;5.85;100.00;100066.69;6248711;28;20053;-76
2022/12/23 05:11:10;;;;;;;11.63;5.43;;;;;;;5.84;100.00;100070.22;6248984;28;20049;-76
2022/12/23 05:14:12;;;;;;;10.55;4.53;;;;;;;5.84;100.00;100065.84;6249394;28;20053;-76
2022/12/23 05:17:13;;;;;;;11.40;4.75;;;;;;;5.85;100.00;100077.13;6249601;28;20053;-76
2022/12/23 05:20:15;;;;;;;12.55;5.10;;;;;;;5.85;100.00;100082.34;6249186;28;20049;-76
2022/12/23 05:23:17;;;;;;;14.23;5.15;;;;;;;5.88;100.00;100087.41;6249086;28;20045;-76
2022/12/23 05:26:19;;;;;;;10.38;4.28;;;;;;;5.88;100.00;100086.59;6249245;28;20060;-76
2022/12/23 05:29:20;;;;;;;8.25;3.92;;;;;;;5.82;100.00;100091.16;6249197;28;20057;-76
2022/12/23 05:32:21;;;;;;;10.05;4.53;;;;;;;5.78;100.00;100096.56;6238910;28;20046;-76
2022/12/23 05:35:24;;;;;;;8.15;4.32;;;;;;;5.78;100.00;100091.34;6224429;28;20054;-76
2022/12/23 05:38:27;;;;;;;14.93;6.28;;;;;;;5.83;100.00;100108.47;6224578;28;20421;-76
2022/12/23 05:41:28;;;;;;;9.90;4.50;;;;;;;5.87;100.00;100110.97;6224324;28;20041;-76
2022/12/23 05:44:30;;;;;;;14.90;6.28;;;;;;;5.90;100.00;100114.25;6234059;28;20056;-76
2022/12/23 05:47:31;;;;;;;13.23;5.60;;;;;;;5.88;100.00;100120.47;6240657;28;20053;-76
2022/12/23 05:50:33;;;;;;;12.27;5.00;;;;;;;5.90;100.00;100127.31;6236896;28;20037;-76
2022/12/23 05:53:36;;;;;;;15.65;5.13;;;;;;;5.90;100.00;100127.31;6234613;28;20045;-76
2022/12/23 05:56:37;;;;;;;15.23;5.40;;;;;;;5.93;100.00;100123.75;6275975;22;20060;-76
2022/12/23 05:59:38;;;;;;;19.20;5.97;;;;;;;5.95;100.00;100124.53;6229479;28;20049;-76
2022/12/23 06:02:40;;;;;;;13.15;5.60;;;;;;;5.88;100.00;100118.72;6220369;28;20052;-76
2022/12/23 06:05:42;;;;;;;15.73;6.03;;;;;;;5.91;100.00;100121.19;6223323;28;20046;-76
2022/12/23 06:08:45;;;;;;;16.80;6.28;;;;;;;5.92;100.00;100124.69;6223679;28;20053;-76
2022/12/23 06:11:46;;;;;;;16.08;5.38;;;;;;;5.93;100.00;100132.44;6223298;28;20401;-76
2022/12/23 06:14:47;;;;;;;16.92;6.40;;;;;;;5.93;100.00;100127.22;6223413;28;20050;-76
2022/12/23 06:17:49;;;;;;;17.70;6.18;;;;;;;5.95;100.00;100129.75;6223588;28;20490;-76
2022/12/23 06:20:50;;;;;;;11.48;5.43;;;;;;;6.00;100.00;100138.22;6222741;28;20050;-76
2022/12/23 06:23:53;;;;;;;14.43;5.55;;;;;;;5.99;100.00;100126.94;6222935;28;20431;-76
2022/12/23 06:26:54;;;;;;;15.65;4.80;;;;;;;5.97;100.00;100147.03;6222140;28;20042;-76
2022/12/23 06:29:56;;;;;;;16.95;5.95;;;;;;;5.97;100.00;100144.41;6230145;28;20084;-76
2022/12/23 06:32:57;;;;;;;12.43;5.40;;;;;;;5.94;100.00;100160.19;6222590;28;20060;-77
2022/12/23 06:35:58;;;;;;;15.15;5.57;;;;;;;5.94;100.00;100160.19;6224413;28;20056;-76
2022/12/23 06:39:01;;;;;;;14.60;5.28;;;;;;;5.93;100.00;100161.09;6247288;28;20049;-76
2022/12/23 06:42:02;;;;;;;17.60;6.57;;;;;;;5.92;100.00;100172.47;6247350;28;20045;-76
2022/12/23 06:45:04;;;;;;;25.25;6.75;;;;;;;5.92;100.00;100169.00;6247095;28;20050;-76
2022/12/23 06:48:06;;;;;;;16.90;5.07;;;;;;;5.92;100.00;100175.06;6247123;28;20415;-76
2022/12/23 06:51:07;;;;;;;12.52;5.22;;;;;;;5.94;100.00;100172.38;6246877;28;20042;-76
2022/12/23 06:54:11;;;;;;;17.00;5.65;;;;;;;5.97;100.00;100172.25;6247114;28;20049;-75
2022/12/23 06:57:12;;;;;;;14.23;4.80;;;;;;;5.97;100.00;100167.03;6246970;28;20041;-76
2022/12/23 07:00:15;;;;;;;17.38;5.82;;;;;;;5.92;100.00;100177.69;6247108;28;20056;-76
2022/12/23 07:03:16;;;;;;;14.57;4.65;;;;;;;5.91;100.00;100170.75;6246910;28;20053;-76
2022/12/23 07:06:18;;;;;;;15.02;5.38;;;;;;;5.88;100.00;100183.91;6246891;28;20056;-76
2022/12/23 07:09:20;;;;;;;12.27;4.55;;;;;;;5.84;100.00;100185.78;6247077;28;20054;-76
2022/12/23 07:12:22;;;;;;;13.52;5.03;;;;;;;5.86;100.00;100198.78;6246714;28;20423;-77
2022/12/23 07:15:23;;;;;;;10.93;4.75;;;;;;;5.88;100.00;100202.16;6246634;28;20049;-76
2022/12/23 07:18:25;;;;;;;13.57;5.35;;;;;;;5.91;100.00;100202.03;6246675;28;20591;-76
2022/12/23 07:21:26;;;;;;;12.02;4.47;;;;;;;5.88;100.00;100206.53;6246660;28;20052;-76
2022/12/23 07:24:29;;;;;;;11.32;4.50;;;;;;;5.85;100.00;100208.34;6246474;28;20052;-77
2022/12/23 07:27:30;;;;;;;19.30;5.65;;;;;;;5.84;100.00;100217.06;6246653;28;20416;-76
2022/12/23 07:30:31;;;;;;;17.98;6.40;;;;;;;5.91;100.00;100209.84;6246530;28;20056;-76
2022/12/23 07:33:33;;;;;;;19.67;6.28;;;;;;;5.93;100.00;100213.25;6250091;28;20056;-76
2022/12/23 07:36:35;;;;;;;15.65;5.55;;;;;;;5.94;100.00;100214.94;6251548;28;20055;-76
2022/12/23 07:39:37;;;;;;;12.13;4.82;;;;;;;5.96;100.00;100215.75;6251750;28;20052;-76
2022/12/23 07:42:38;;;;;;;17.83;5.30;;;;;;;5.97;100.00;100220.06;6242149;28;20046;-76
2022/12/23 07:45:40;;;;;;;23.30;5.45;;;;;;;6.02;100.00;100220.69;6238201;28;20512;-76
2022/12/23 07:48:42;;;;;;;16.42;6.20;;;;;;;6.03;100.00;100229.38;6236908;28;20050;-77
2022/12/23 07:51:43;;;;;;;21.60;6.10;;;;;;;6.03;100.00;100243.25;6237678;28;20038;-76
2022/12/23 07:54:46;;;;;;;18.23;5.28;;;;;;;6.04;100.00;100244.97;6236829;28;20490;-76
2022/12/23 07:57:48;;;;;;;21.23;6.20;;;;;;;6.00;100.00;100245.16;6237258;28;20053;-76
2022/12/23 08:00:49;;;;;;;21.00;5.57;;;;;;;5.99;100.00;100246.91;6233070;28;20394;-76
2022/12/23 08:03:50;;;;;;;18.33;7.13;;;;;;;5.98;100.00;100252.19;6226356;28;20050;-76
2022/12/23 08:06:52;;;;;;;24.15;6.72;;;;;;;5.93;100.00;100248.94;6227428;28;20053;-76
2022/12/23 08:09:54;;;;;;;16.40;6.22;;;;;;;5.97;100.00;100255.72;6238363;28;20049;-76
2022/12/23 08:12:55;;;;;;;23.67;7.15;;;;;;;5.95;100.00;100260.13;6237589;28;20053;-76
2022/12/23 08:15:58;;;;;;;18.90;6.07;;;;;;;5.92;100.00;100265.50;6236452;28;20172;-76
2022/12/23 08:19:00;;;;;;;17.35;5.35;;;;;;;5.89;100.00;100273.41;6235646;28;20054;-77
2022/12/23 08:22:01;;;;;;;18.98;6.13;;;;;;;5.89;100.00;100273.41;6240855;28;20056;-76
2022/12/23 08:25:05;;;;;;;25.23;6.50;;;;;;;5.89;100.00;100283.84;6225640;28;20050;-76
2022/12/23 08:28:06;;;;;;;17.70;6.15;;;;;;;5.88;100.00;100289.97;6225823;28;20428;-76
2022/12/23 08:31:09;;;;;;;15.90;5.90;;;;;;;5.91;100.00;100295.91;6225443;28;20053;-76
2022/12/23 08:34:11;;;;;;;16.50;6.15;;;;;;;5.92;100.00;100287.22;6225956;28;20061;-77
2022/12/23 08:37:12;;;;;;;19.73;6.55;;;;;;;5.93;100.00;100286.28;6225774;28;20049;-77
2022/12/23 08:40:15;;;;;;;26.25;6.45;;;;;;;5.93;100.00;100288.91;6233077;28;20061;-77
2022/12/23 08:43:16;;;;;;;14.73;5.88;;;;;;;5.95;100.00;100281.00;6250105;28;20058;-77
2022/12/23 08:46:17;;;;;;;15.07;6.07;;;;;;;5.97;100.00;100302.66;6250115;28;20679;-77
2022/12/23 08:49:19;;;;;;;17.73;6.15;;;;;;;5.99;100.00;100308.66;6250061;28;20057;-76
2022/12/23 08:52:20;;;;;;;19.67;6.97;;;;;;;5.99;100.00;100306.03;6249867;28;20045;-76
2022/12/23 08:55:23;;;;;;;19.02;5.80;;;;;;;5.99;100.00;100303.44;6249805;28;20516;-76
2022/12/23 08:58:24;;;;;;;20.63;6.63;;;;;;;6.00;100.00;100308.59;6250062;28;20045;-77
2022/12/23 09:01:28;;;;;;;22.48;7.20;;;;;;;6.00;100.00;100305.16;6249580;28;20041;-76
2022/12/23 09:04:29;;;;;;;15.20;6.38;;;;;;;5.98;100.00;100297.38;6249626;28;20053;-76
2022/12/23 09:07:30;;;;;;;25.25;8.32;;;;;;;5.99;100.00;100286.03;6250328;28;20056;-76
2022/12/23 09:10:33;;;;;;;19.08;6.82;;;;;;;6.03;100.00;100276.31;6249675;28;20046;-76
2022/12/23 09:13:34;;;;;;;19.23;7.35;;;;;;;6.04;100.00;100283.22;6250056;28;20045;-76
2022/12/23 09:16:36;;;;;;;17.23;6.10;;;;;;;6.02;100.00;100279.84;6249041;28;20417;-77
2022/12/23 09:19:38;;;;;;;17.15;6.57;;;;;;;6.03;100.00;100274.53;6249432;28;20064;-77
2022/12/23 09:22:39;;;;;;;18.83;6.28;;;;;;;6.06;100.00;100284.88;6249259;28;20053;-76
2022/12/23 09:25:42;;;;;;;17.25;5.55;;;;;;;6.09;100.00;100281.28;6249020;28;20053;-77
2022/12/23 09:28:43;;;;;;;16.63;5.32;;;;;;;6.15;100.00;100294.06;6237612;28;20050;-77
2022/12/23 09:31:44;;;;;;;17.95;6.72;;;;;;;6.15;100.00;100295.84;6211703;28;20037;-77
2022/12/23 09:34:46;;;;;;;23.05;6.85;;;;;;;6.22;100.00;100299.84;6210021;28;20046;-76
2022/12/23 09:37:47;;;;;;;20.95;6.95;;;;;;;6.26;100.00;100307.47;6222762;28;20395;-76
2022/12/23 09:40:50;;;;;;;23.75;6.97;;;;;;;6.32;100.00;100301.19;6222760;28;20068;-76
2022/12/23 09:44:04;;;;;;;22.52;6.65;;;;;;;6.31;100.00;100316.00;6225431;28;20421;-77
2022/12/23 09:47:10;;;;;;;18.30;6.35;;;;;;;6.27;100.00;100313.59;6224052;28;20050;-77
2022/12/23 09:50:21;;;;;;;13.80;4.82;;;;;;;6.29;100.00;100309.97;6224179;28;20410;-77
2022/12/23 09:53:27;;;;;;;16.95;5.95;;;;;;;6.26;100.00;100304.03;6223961;28;20093;-77
2022/12/23 09:56:39;;;;;;;13.80;5.97;;;;;;;6.25;100.00;100308.41;6223213;28;20056;-77
2022/12/23 09:59:55;;;;;;;19.35;5.88;;;;;;;6.25;100.00;100311.00;6224371;28;20057;-77
2022/12/23 10:03:07;;;;;;;21.98;7.53;;;;;;;6.25;100.00;100304.94;6222516;28;20045;-79
2022/12/23 10:06:14;;;;;;;17.88;5.10;;;;;;;6.27;100.00;100308.38;6225566;28;20061;-77
2022/12/23 10:09:17;;;;;;;15.80;6.10;;;;;;;6.31;100.00;100313.38;6225062;28;20050;-76
2022/12/23 10:12:29;;;;;;;21.60;7.32;;;;;;;6.38;100.00;100306.13;6224560;28;20054;-76
2022/12/23 10:15:36;;;;;;;14.73;5.22;;;;;;;6.37;100.00;100298.38;6222135;28;20493;-77
2022/12/23 10:18:48;;;;;;;17.83;5.95;;;;;;;6.38;100.00;100300.06;6229438;28;20046;-77
2022/12/23 10:21:52;;;;;;;16.35;5.80;;;;;;;6.41;100.00;100289.50;6237934;28;20052;-77
2022/12/23 10:24:57;;;;;;;15.68;5.47;;;;;;;6.44;100.00;100297.19;6248051;28;20045;-76
2022/12/23 10:28:00;;;;;;;15.10;5.18;;;;;;;6.47;100.00;100295.28;6244757;28;20068;-77
2022/12/23 10:31:04;;;;;;;18.95;7.82;;;;;;;6.49;100.00;100296.06;6227609;28;20042;-78
2022/12/23 10:34:16;;;;;;;23.25;6.65;;;;;;;6.53;100.00;100300.22;6234308;28;20053;-77
2022/12/23 10:37:27;;;;;;;26.85;8.27;;;;;;;6.51;100.00;100299.47;6225112;28;20049;-77
2022/12/23 10:40:34;;;;;;;22.55;7.10;;;;;;;6.55;100.00;100289.75;6213121;28;20046;-76
2022/12/23 10:43:52;;;;;;;21.92;7.43;;;;;;;6.61;100.00;100299.91;6199250;28;20495;-77
2022/12/23 10:47:03;;;;;;;22.70;6.45;;;;;;;6.63;100.00;100279.78;6222852;28;20050;-76
2022/12/23 10:50:18;;;;;;;15.73;5.90;;;;;;;6.67;100.00;100277.88;6231093;28;20053;-74
2022/12/23 10:53:30;;;;;;;22.52;6.20;;;;;;;6.69;100.00;100271.69;6226179;28;20592;-76
2022/12/23 10:56:32;;;;;;;19.23;5.70;;;;;;;6.67;100.00;100277.88;6223512;28;20050;-77
2022/12/23 10:59:36;;;;;;;18.20;5.80;;;;;;;6.63;100.00;100274.56;6226841;28;20049;-78
2022/12/23 11:02:49;;;;;;;24.20;7.22;;;;;;;6.63;100.00;100260.66;6232285;28;20037;-77
2022/12/23 11:05:52;;;;;;;18.98;6.57;;;;;;;6.58;100.00;100260.88;6235456;28;20042;-77
2022/12/23 11:08:56;;;;;;;21.33;6.38;;;;;;;6.59;100.00;100255.59;6233893;28;20052;-76
2022/12/23 11:11:59;;;;;;;22.13;7.00;;;;;;;6.58;100.00;100261.72;6222758;28;20053;-74
2022/12/23 11:15:03;;;;;;;16.48;4.28;;;;;;;6.64;100.00;100255.41;6243974;28;20056;-78
2022/12/23 11:18:15;;;;;;;11.68;4.53;;;;;;;6.70;100.00;100246.44;6247310;28;20089;-77
2022/12/23 11:21:16;;;;;;;16.33;5.57;;;;;;;6.70;100.00;100242.06;6247495;28;20056;-78
2022/12/23 11:24:21;;;;;;;18.08;6.07;;;;;;;6.68;100.00;100249.13;6223011;28;20049;-77
2022/12/23 11:27:22;;;;;;;17.25;5.50;;;;;;;6.69;100.00;100248.19;6224454;28;20416;-76
2022/12/23 11:30:25;;;;;;;18.48;5.20;;;;;;;6.70;100.00;100243.81;6222469;28;20042;-78
2022/12/23 11:33:29;;;;;;;15.20;5.60;;;;;;;6.71;100.00;100248.13;6223053;28;20050;-77
2022/12/23 11:36:32;;;;;;;13.48;4.60;;;;;;;6.73;100.00;100239.31;6220909;28;20042;-76
2022/12/23 11:39:36;;;;;;;16.95;6.25;;;;;;;6.73;100.00;100236.69;6219663;28;20053;-77
2022/12/23 11:42:41;;;;;;;15.43;5.18;;;;;;;6.79;100.00;100230.34;6222926;28;20050;-76
2022/12/23 11:45:43;;;;;;;22.98;6.32;;;;;;;6.80;100.00;100224.19;6222757;28;20049;-77
2022/12/23 11:48:45;;;;;;;16.48;5.38;;;;;;;6.85;100.00;100230.03;6221319;28;20418;-76
2022/12/23 11:51:48;;;;;;;15.77;5.22;;;;;;;6.88;100.00;100232.53;6211135;28;20053;-77
2022/12/23 11:54:52;;;;;;;17.20;5.30;;;;;;;6.86;100.00;100232.59;6203128;28;20054;-76
2022/12/23 12:00:59;;;;;;;20.13;5.95;;;;;;;6.94;100.00;100224.41;6192349;28;20053;-75
2022/12/23 12:04:03;;;;;;;13.88;4.85;;;;;;;6.97;100.00;100223.41;6194811;28;20041;-75
2022/12/23 12:07:06;;;;;;;14.43;5.38;;;;;;;7.01;100.00;100223.19;6211925;28;20505;-74
2022/12/23 12:10:17;;;;;;;19.95;5.55;;;;;;;6.98;100.00;100220.72;6219405;28;20073;-73
2022/12/23 12:13:25;;;;;;;15.32;4.80;;;;;;;6.95;100.00;100214.78;6191420;28;20515;-74
2022/12/23 12:16:47;;;;;;;11.60;4.57;;;;;;;7.01;100.00;100199.69;6194849;28;20054;-74
2022/12/23 12:19:58;;;;;;;10.20;4.35;;;;;;;7.03;100.00;100195.22;6210243;28;20037;-74
2022/12/23 12:23:06;;;;;;;14.25;5.25;;;;;;;7.01;100.00;100184.00;6224131;28;20049;-75
2022/12/23 12:26:15;;;;;;;14.05;5.63;;;;;;;6.96;100.00;100187.78;6214783;28;20050;-75
2022/12/23 12:29:23;;;;;;;18.10;5.38;;;;;;;6.93;100.00;100186.13;6198119;28;20046;-74
2022/12/23 12:32:35;;;;;;;24.35;7.45;;;;;;;6.94;100.00;100195.66;6206879;28;20041;-78
2022/12/23 12:35:42;;;;;;;20.40;6.13;;;;;;;6.93;100.00;100180.91;6198800;28;20046;-75
2022/12/23 12:38:48;;;;;;;16.40;5.28;;;;;;;6.95;100.00;100175.59;6200817;28;20047;-75
2022/12/23 12:41:53;;;;;;;17.15;6.60;;;;;;;6.96;100.00;100172.94;6217584;28;20395;-74
2022/12/23 12:45:02;;;;;;;21.27;7.20;;;;;;;6.93;100.00;100165.25;6213932;28;20054;-75
2022/12/23 12:48:22;;;;;;;19.67;6.75;;;;;;;7.00;100.00;100157.97;6224967;28;20129;-74
2022/12/23 12:51:28;;;;;;;18.48;6.30;;;;;;;7.03;100.00;100147.34;6210863;28;20047;-75
2022/12/23 12:54:34;;;;;;;28.40;7.28;;;;;;;7.07;100.00;100141.06;6183585;28;20415;-75
2022/12/23 12:57:36;;;;;;;17.80;5.55;;;;;;;7.06;100.00;100136.78;6181004;28;20419;-74
2022/12/23 13:00:49;;;;;;;18.90;7.20;;;;;;;7.06;100.00;100140.22;6185986;28;20408;-75
2022/12/23 13:04:20;;;;;;;21.92;6.95;;;;;;;7.02;100.00;100135.22;6195540;28;20490;-75
2022/12/23 13:07:28;;;;;;;23.58;6.78;;;;;;;6.99;100.00;100132.75;6215948;28;20053;-75
2022/12/23 13:10:38;;;;;;;13.90;4.85;;;;;;;7.01;100.00;100133.53;6212135;28;20077;-75
2022/12/23 13:13:50;;;;;;;16.95;5.35;;;;;;;6.99;100.00;100138.81;6180765;28;20047;-75
2022/12/23 13:17:01;;;;;;;13.73;4.75;;;;;;;6.97;100.00;100135.44;6195808;28;20054;-75
2022/12/23 13:20:16;;;;;;;16.23;5.32;;;;;;;6.93;100.00;100128.69;6200178;28;20057;-75
2022/12/23 13:23:22;;;;;;;17.65;5.45;;;;;;;6.95;100.00;100133.81;6202979;28;20046;-75
2022/12/23 13:26:35;;;;;;;14.88;5.15;;;;;;;6.98;100.00;100131.06;6222010;28;20050;-75
2022/12/23 13:29:52;;;;;;;18.23;5.50;;;;;;;6.99;100.00;100130.13;6217746;28;20050;-73
2022/12/23 13:33:06;;;;;;;13.57;4.72;;;;;;;6.99;100.00;100130.97;6211759;28;20413;-74
2022/12/23 13:36:25;;;;;;;17.55;5.63;;;;;;;6.97;100.00;100132.84;6216461;28;20144;-75
2022/12/23 13:39:36;;;;;;;14.02;5.15;;;;;;;6.95;100.00;100126.84;6222987;28;20054;-75
2022/12/23 13:42:41;;;;;;;12.88;5.05;;;;;;;6.96;100.00;100119.84;6223888;28;20498;-75
2022/12/23 13:45:45;;;;;;;19.58;5.20;;;;;;;6.96;100.00;100125.94;6223946;28;20497;-75
2022/12/23 13:48:55;;;;;;;11.02;4.35;;;;;;;6.93;100.00;100113.00;6224005;28;20057;-74
2022/12/23 13:52:05;;;;;;;11.20;4.50;;;;;;;6.92;100.00;100103.47;6223997;28;20060;-74
2022/12/23 13:55:22;;;;;;;15.95;4.55;;;;;;;6.91;100.00;100093.97;6223863;28;20049;-75
2022/12/23 13:58:26;;;;;;;18.25;4.40;;;;;;;6.89;100.00;100098.41;6223667;28;20069;-75
2022/12/23 14:01:34;;;;;;;13.57;3.95;;;;;;;6.89;100.00;100098.41;6223338;28;20120;-74
2022/12/23 14:04:37;;;;;;;17.33;5.63;;;;;;;6.84;100.00;100095.16;6223603;28;20042;-75
2022/12/23 14:07:44;;;;;;;11.63;4.10;;;;;;;6.80;100.00;100091.84;6223447;28;20518;-74
2022/12/23 14:10:50;;;;;;;12.48;3.85;;;;;;;6.81;100.00;100092.69;6223650;28;20490;-74
2022/12/23 14:13:55;;;;;;;10.27;4.47;;;;;;;6.82;100.00;100090.03;6223510;28;20050;-74
2022/12/23 14:17:05;;;;;;;7.88;3.85;;;;;;;6.78;100.00;100092.88;6211862;28;20057;-75
2022/12/23 14:20:21;;;;;;;11.85;4.53;;;;;;;6.80;100.00;100089.25;6215217;28;20046;-74
2022/12/23 14:23:36;;;;;;;8.80;3.95;;;;;;;6.76;100.00;100079.84;6221576;28;20053;-75
2022/12/23 14:26:57;;;;;;;13.35;3.63;;;;;;;6.75;100.00;100082.56;6221509;28;20069;-74
2022/12/23 14:30:09;;;;;;;13.35;5.07;;;;;;;6.71;100.00;100079.25;6221747;28;20050;-75
2022/12/23 14:33:20;;;;;;;12.95;4.53;;;;;;;6.69;100.00;100070.66;6221816;28;20042;-75
2022/12/23 14:36:24;;;;;;;15.77;6.13;;;;;;;6.66;100.00;100065.56;6222721;28;20399;-74
2022/12/23 14:39:33;;;;;;;13.25;4.57;;;;;;;6.67;100.00;100056.81;6222709;28;20564;-74
2022/12/23 14:42:36;;;;;;;14.80;4.88;;;;;;;6.67;100.00;100058.56;6222462;28;20046;-74
2022/12/23 14:45:42;;;;;;;13.80;4.90;;;;;;;6.66;100.00;100059.50;6222681;28;20053;-74